createdAt,value
2022-10-15T00:01:36.843Z,13.70
2022-10-15T00:04:04.068Z,13.70
2022-10-15T00:06:30.762Z,13.70
2022-10-15T00:08:57.549Z,13.70
2022-10-15T00:11:26.559Z,13.70
2022-10-15T00:13:55.158Z,13.60
2022-10-15T00:16:26.225Z,13.70
2022-10-15T00:18:58.388Z,13.60
2022-10-15T00:21:25.381Z,13.60
2022-10-15T00:23:55.977Z,13.60
2022-10-15T00:26:25.495Z,13.60
2022-10-15T00:28:53.719Z,13.60
2022-10-15T00:31:26.326Z,13.60
2022-10-15T00:33:58.086Z,13.60
2022-10-15T00:36:30.109Z,13.60
2022-10-15T00:38:57.276Z,13.60
2022-10-15T00:41:24.971Z,13.60
2022-10-15T00:43:54.385Z,13.60
2022-10-15T00:46:28.825Z,13.60
2022-10-15T00:49:25.714Z,13.70
2022-10-15T00:51:52.808Z,13.70
2022-10-15T00:54:20.685Z,13.60
2022-10-15T00:56:49.370Z,13.60
2022-10-15T00:59:18.317Z,13.60
2022-10-15T01:01:47.880Z,13.60
2022-10-15T01:04:15.124Z,13.60
2022-10-15T01:06:46.579Z,13.60
2022-10-15T01:09:16.572Z,13.60
2022-10-15T01:11:47.407Z,13.60
2022-10-15T01:14:29.416Z,13.60
2022-10-15T01:17:04.862Z,13.60
2022-10-15T01:20:05.059Z,13.60
2022-10-15T01:22:52.078Z,13.60
2022-10-15T01:25:42.957Z,13.60
2022-10-15T01:28:38.915Z,13.60
2022-10-15T01:31:36.875Z,13.60
2022-10-15T01:34:31.507Z,13.60
2022-10-15T01:37:25.941Z,13.60
2022-10-15T01:39:59.209Z,13.60
2022-10-15T01:42:34.281Z,13.60
2022-10-15T01:45:06.378Z,13.60
2022-10-15T01:47:55.511Z,13.60
2022-10-15T01:50:26.551Z,13.60
2022-10-15T01:52:57.385Z,13.60
2022-10-15T01:55:26.475Z,13.60
2022-10-15T01:57:57.454Z,13.60
2022-10-15T02:00:24.203Z,13.60
2022-10-15T02:02:50.879Z,13.60
2022-10-15T02:05:24.288Z,13.60
2022-10-15T02:08:16.033Z,13.70
2022-10-15T02:11:05.194Z,13.60
2022-10-15T02:13:50.052Z,13.60
2022-10-15T02:16:49.777Z,13.60
2022-10-15T02:19:30.562Z,13.60
2022-10-15T02:22:14.859Z,13.60
2022-10-15T02:24:44.310Z,13.70
2022-10-15T02:27:14.258Z,13.60
2022-10-15T02:29:42.663Z,13.70
2022-10-15T02:32:10.898Z,13.60
2022-10-15T02:34:39.006Z,13.60
2022-10-15T02:37:08.472Z,13.60
2022-10-15T02:39:35.347Z,13.60
2022-10-15T02:42:02.534Z,13.60
2022-10-15T02:44:29.612Z,13.60
2022-10-15T02:46:58.886Z,13.60
2022-10-15T02:49:25.667Z,13.60
2022-10-15T02:51:52.382Z,13.60
2022-10-15T02:54:19.206Z,13.60
2022-10-15T02:56:45.981Z,13.60
2022-10-15T02:59:12.628Z,13.60
2022-10-15T03:01:39.350Z,13.60
2022-10-15T03:04:06.039Z,13.60
2022-10-15T03:06:32.747Z,13.60
2022-10-15T03:08:59.509Z,13.60
2022-10-15T03:11:26.301Z,13.60
2022-10-15T03:13:52.962Z,13.60
2022-10-15T03:16:19.690Z,13.60
2022-10-15T03:18:46.459Z,13.70
2022-10-15T03:21:13.153Z,13.60
2022-10-15T03:23:39.920Z,13.70
2022-10-15T03:26:06.834Z,13.70
2022-10-15T03:28:33.586Z,13.70
2022-10-15T03:31:00.315Z,13.70
2022-10-15T03:33:27.084Z,13.70
2022-10-15T03:35:53.934Z,13.70
2022-10-15T03:38:20.947Z,13.60
2022-10-15T03:40:47.623Z,13.70
2022-10-15T03:43:14.350Z,13.60
2022-10-15T03:45:41.033Z,13.70
2022-10-15T03:48:07.709Z,13.80
2022-10-15T03:50:35.009Z,13.70
2022-10-15T03:53:05.723Z,13.70
2022-10-15T03:55:32.997Z,13.70
2022-10-15T03:57:59.885Z,13.70
2022-10-15T04:00:26.881Z,13.80
2022-10-15T04:02:53.546Z,13.70
2022-10-15T04:05:20.263Z,13.70
2022-10-15T04:07:46.928Z,13.70
2022-10-15T04:10:13.667Z,13.70
2022-10-15T04:12:40.339Z,13.70
2022-10-15T04:15:07.548Z,13.70
2022-10-15T04:17:34.228Z,13.70
2022-10-15T04:20:01.080Z,13.70
2022-10-15T04:22:27.740Z,13.70
2022-10-15T04:24:54.462Z,13.70
2022-10-15T04:27:21.165Z,13.70
2022-10-15T04:29:49.180Z,13.70
2022-10-15T04:32:16.064Z,13.60
2022-10-15T04:34:42.873Z,13.70
2022-10-15T04:37:09.597Z,13.70
2022-10-15T04:39:36.379Z,13.80
2022-10-15T04:42:03.135Z,13.70
2022-10-15T04:44:29.925Z,13.70
2022-10-15T04:46:56.658Z,13.70
2022-10-15T04:49:23.365Z,13.70
2022-10-15T04:51:50.092Z,13.70
2022-10-15T04:54:17.116Z,13.70
2022-10-15T04:56:43.911Z,13.70
2022-10-15T04:59:10.759Z,13.70
2022-10-15T05:01:37.471Z,13.70
2022-10-15T05:04:04.321Z,13.80
2022-10-15T05:06:33.182Z,13.80
2022-10-15T05:09:01.670Z,13.80
2022-10-15T05:11:28.405Z,13.80
2022-10-15T05:13:56.157Z,13.80
2022-10-15T05:16:28.656Z,13.80
2022-10-15T05:19:04.344Z,13.80
2022-10-15T05:21:31.758Z,13.80
2022-10-15T05:23:59.590Z,13.70
2022-10-15T05:26:28.745Z,13.80
2022-10-15T05:28:58.103Z,13.80
2022-10-15T05:31:27.539Z,13.70
2022-10-15T05:33:55.064Z,13.70
2022-10-15T05:36:26.007Z,13.70
2022-10-15T05:38:55.588Z,13.70
2022-10-15T05:41:22.966Z,13.50
2022-10-15T05:43:50.723Z,13.80
2022-10-15T05:46:19.019Z,13.80
2022-10-15T05:48:57.046Z,14.00
2022-10-15T05:51:25.418Z,13.80
2022-10-15T05:53:53.312Z,13.80
2022-10-15T05:56:20.136Z,13.80
2022-10-15T05:58:46.861Z,13.80
2022-10-15T06:01:14.092Z,13.80
2022-10-15T06:03:41.874Z,13.90
2022-10-15T06:06:20.757Z,13.90
2022-10-15T06:08:48.291Z,13.90
2022-10-15T06:11:15.464Z,13.90
2022-10-15T06:13:43.588Z,13.90
2022-10-15T06:16:11.325Z,14.00
2022-10-15T06:18:41.426Z,13.90
2022-10-15T06:21:09.642Z,13.90
2022-10-15T06:23:36.587Z,14.00
2022-10-15T06:26:05.376Z,14.10
2022-10-15T06:28:32.925Z,14.00
2022-10-15T06:31:00.745Z,14.10
2022-10-15T06:33:28.754Z,14.10
2022-10-15T06:35:55.818Z,14.20
2022-10-15T06:38:23.833Z,14.10
2022-10-15T06:40:50.600Z,14.10
2022-10-15T06:43:17.275Z,14.20
2022-10-15T06:45:44.914Z,14.20
2022-10-15T06:48:11.745Z,14.20
2022-10-15T06:50:39.510Z,14.20
2022-10-15T06:53:06.980Z,14.30
2022-10-15T06:55:33.874Z,14.40
2022-10-15T06:58:00.632Z,14.40
2022-10-15T07:00:27.967Z,14.40
2022-10-15T07:02:54.688Z,14.50
2022-10-15T07:05:24.103Z,14.50
2022-10-15T07:07:55.031Z,14.60
2022-10-15T07:10:22.561Z,14.70
2022-10-15T07:12:49.495Z,14.70
2022-10-15T07:15:16.824Z,14.70
2022-10-15T07:17:51.480Z,14.80
2022-10-15T07:20:21.784Z,14.80
2022-10-15T07:22:51.121Z,14.90
2022-10-15T07:25:23.822Z,15.00
2022-10-15T07:27:50.565Z,15.00
2022-10-15T07:30:17.381Z,15.20
2022-10-15T07:32:46.395Z,15.20
2022-10-15T07:35:13.363Z,15.30
2022-10-15T07:37:40.897Z,15.30
2022-10-15T07:40:08.222Z,15.40
2022-10-15T07:42:38.444Z,15.40
2022-10-15T07:45:05.612Z,15.40
2022-10-15T07:47:32.583Z,15.40
2022-10-15T07:49:59.261Z,15.40
2022-10-15T07:52:26.345Z,15.40
2022-10-15T07:54:53.342Z,15.50
2022-10-15T07:57:20.065Z,15.50
2022-10-15T07:59:46.701Z,15.50
2022-10-15T08:02:16.685Z,15.60
2022-10-15T08:04:43.759Z,15.60
2022-10-15T08:07:10.611Z,15.60
2022-10-15T08:09:37.593Z,15.70
2022-10-15T08:12:06.741Z,15.80
2022-10-15T08:14:36.957Z,15.70
2022-10-15T08:17:04.715Z,15.80
2022-10-15T08:19:31.421Z,15.80
2022-10-15T08:21:58.314Z,15.80
2022-10-15T08:24:25.345Z,16.00
2022-10-15T08:26:52.113Z,15.90
2022-10-15T08:29:18.764Z,15.90
2022-10-15T08:31:45.459Z,16.00
2022-10-15T08:34:12.209Z,16.00
2022-10-15T08:36:38.899Z,16.00
2022-10-15T08:39:07.267Z,16.00
2022-10-15T08:41:41.908Z,16.00
2022-10-15T08:44:24.948Z,16.00
2022-10-15T08:47:14.800Z,16.10
2022-10-15T08:49:49.149Z,15.90
2022-10-15T08:52:21.484Z,15.80
2022-10-15T08:54:48.444Z,16.20
2022-10-15T08:57:33.798Z,16.30
2022-10-15T09:00:16.339Z,16.30
2022-10-15T09:02:51.524Z,16.30
2022-10-15T09:05:42.082Z,16.40
2022-10-15T09:08:14.836Z,16.50
2022-10-15T09:10:49.978Z,16.60
2022-10-15T09:13:25.878Z,16.80
2022-10-15T09:16:14.776Z,16.80
2022-10-15T09:18:45.887Z,16.90
2022-10-15T09:21:14.293Z,16.90
2022-10-15T09:23:43.727Z,16.90
2022-10-15T09:26:36.296Z,17.10
2022-10-15T09:29:16.865Z,16.90
2022-10-15T09:34:33.094Z,16.90
2022-10-15T09:37:14.435Z,16.90
2022-10-15T09:39:49.717Z,16.90
2022-10-15T09:42:35.991Z,16.90
2022-10-15T09:45:10.976Z,16.90
2022-10-15T09:47:40.596Z,16.90
2022-10-15T09:50:11.123Z,16.90
2022-10-15T09:53:03.459Z,16.90
2022-10-15T09:55:42.610Z,17.00
2022-10-15T09:58:15.803Z,17.20
2022-10-15T10:01:04.331Z,17.40
2022-10-15T10:03:34.128Z,17.60
2022-10-15T10:06:04.715Z,17.80
2022-10-15T10:08:38.775Z,17.80
2022-10-15T10:11:09.378Z,18.00
2022-10-15T10:13:48.425Z,18.30
2022-10-15T10:16:17.546Z,18.60
2022-10-15T10:19:01.024Z,19.20
2022-10-15T10:21:36.317Z,19.20
2022-10-15T10:24:34.438Z,20.30
2022-10-15T10:27:02.324Z,20.60
2022-10-15T10:29:35.283Z,20.40
2022-10-15T10:32:12.847Z,20.20
2022-10-15T10:34:43.181Z,20.30
2022-10-15T10:37:11.506Z,20.10
2022-10-15T10:39:38.245Z,20.50
2022-10-15T10:42:16.671Z,20.60
2022-10-15T10:44:46.688Z,20.80
2022-10-15T10:47:20.250Z,20.90
2022-10-15T10:49:49.924Z,21.40
2022-10-15T10:52:50.882Z,21.40
2022-10-15T10:55:20.314Z,21.20
2022-10-15T10:57:56.123Z,20.80
2022-10-15T11:00:43.424Z,20.70
2022-10-15T11:03:36.991Z,20.60
2022-10-15T11:06:15.566Z,20.60
2022-10-15T11:09:02.954Z,20.40
2022-10-15T11:11:54.038Z,20.20
2022-10-15T11:14:31.572Z,20.10
2022-10-15T11:17:19.449Z,20.30
2022-10-15T11:20:21.007Z,20.50
2022-10-15T11:23:11.584Z,20.80
2022-10-15T11:25:59.430Z,21.00
2022-10-15T11:29:00.916Z,21.00
2022-10-15T11:31:49.272Z,21.10
2022-10-15T11:34:45.146Z,20.90
2022-10-15T11:37:26.987Z,20.50
2022-10-15T11:40:06.237Z,20.40
2022-10-15T11:42:46.976Z,20.20
2022-10-15T11:45:32.501Z,20.00
2022-10-15T11:48:21.148Z,19.70
2022-10-15T11:51:22.398Z,19.90
2022-10-15T11:53:59.517Z,20.10
2022-10-15T11:56:38.770Z,20.10
2022-10-15T11:59:31.157Z,20.10
2022-10-15T12:02:15.038Z,20.00
2022-10-15T12:04:56.759Z,19.90
2022-10-15T12:07:33.529Z,20.00
2022-10-15T12:10:30.983Z,19.90
2022-10-15T12:13:16.808Z,19.90
2022-10-15T12:15:50.507Z,19.90
2022-10-15T12:18:41.029Z,20.20
2022-10-15T12:21:35.156Z,20.50
2022-10-15T12:24:03.418Z,20.50
2022-10-15T12:26:33.569Z,20.50
2022-10-15T12:29:07.036Z,20.60
2022-10-15T12:31:46.712Z,21.10
2022-10-15T12:34:28.543Z,21.10
2022-10-15T12:37:05.167Z,20.90
2022-10-15T12:39:52.122Z,20.80
2022-10-15T12:42:24.016Z,21.10
2022-10-15T12:44:51.533Z,21.40
2022-10-15T12:47:49.048Z,21.20
2022-10-15T12:50:22.192Z,20.80
2022-10-15T12:53:02.478Z,20.70
2022-10-15T12:55:38.271Z,20.60
2022-10-15T12:58:32.148Z,20.90
2022-10-15T13:01:04.060Z,21.30
2022-10-15T13:03:37.875Z,21.40
2022-10-15T13:06:22.839Z,21.30
2022-10-15T13:09:04.381Z,21.20
2022-10-15T13:11:37.022Z,21.10
2022-10-15T13:14:36.730Z,20.70
2022-10-15T13:17:21.105Z,20.10
2022-10-15T13:20:09.680Z,19.60
2022-10-15T13:22:37.278Z,19.40
2022-10-15T13:25:04.586Z,19.00
2022-10-15T13:27:33.919Z,19.00
2022-10-15T13:30:12.587Z,19.00
2022-10-15T13:32:46.542Z,18.70
2022-10-15T13:35:18.036Z,18.60
2022-10-15T13:37:46.898Z,18.60
2022-10-15T13:40:28.540Z,18.70
2022-10-15T13:43:06.732Z,18.80
2022-10-15T13:45:33.907Z,18.70
2022-10-15T13:48:00.755Z,18.80
2022-10-15T13:50:33.469Z,19.10
2022-10-15T13:53:14.017Z,19.10
2022-10-15T13:55:45.998Z,19.00
2022-10-15T13:58:31.210Z,19.10
2022-10-15T14:01:23.003Z,19.30
2022-10-15T14:03:53.912Z,19.30
2022-10-15T14:06:23.606Z,19.20
2022-10-15T14:08:53.052Z,19.10
2022-10-15T14:11:20.482Z,19.10
2022-10-15T14:13:48.452Z,19.10
2022-10-15T14:16:27.570Z,19.00
2022-10-15T14:19:06.684Z,18.90
2022-10-15T14:21:34.775Z,18.80
2022-10-15T14:24:07.660Z,18.80
2022-10-15T14:26:35.082Z,18.60
2022-10-15T14:29:06.489Z,18.50
2022-10-15T14:31:40.936Z,18.50
2022-10-15T14:34:29.603Z,18.40
2022-10-15T14:36:56.529Z,18.40
2022-10-15T14:39:28.326Z,18.30
2022-10-15T14:41:59.609Z,18.40
2022-10-15T14:44:26.587Z,18.40
2022-10-15T14:47:01.927Z,18.30
2022-10-15T14:49:34.512Z,18.40
2022-10-15T14:52:08.580Z,18.50
2022-10-15T14:54:39.721Z,18.50
2022-10-15T14:57:20.975Z,18.30
2022-10-15T14:59:47.916Z,18.10
2022-10-15T15:02:16.383Z,18.00
2022-10-15T15:05:05.911Z,17.90
2022-10-15T15:07:32.819Z,17.80
2022-10-15T15:09:59.491Z,17.70
2022-10-15T15:12:28.149Z,17.70
2022-10-15T15:14:55.146Z,17.50
2022-10-15T15:17:24.987Z,17.40
2022-10-15T15:19:54.488Z,17.30
2022-10-15T15:22:28.726Z,17.30
2022-10-15T15:24:56.713Z,17.30
2022-10-15T15:27:26.057Z,17.30
2022-10-15T15:29:53.164Z,17.30
2022-10-15T15:32:20.883Z,17.40
2022-10-15T15:34:49.265Z,17.30
2022-10-15T15:37:19.011Z,17.30
2022-10-15T15:39:46.005Z,17.30
2022-10-15T15:42:17.959Z,17.20
2022-10-15T15:44:45.081Z,17.20
2022-10-15T15:47:12.016Z,17.20
2022-10-15T15:49:39.355Z,17.10
2022-10-15T15:52:14.013Z,17.10
2022-10-15T15:54:41.374Z,17.10
2022-10-15T15:57:08.162Z,17.00
2022-10-15T15:59:35.247Z,17.00
2022-10-15T16:02:02.143Z,16.90
2022-10-15T16:04:28.879Z,16.90
2022-10-15T16:06:55.623Z,16.80
2022-10-15T16:09:23.490Z,16.80
2022-10-15T16:11:51.012Z,16.70
2022-10-15T16:14:17.727Z,16.70
2022-10-15T16:16:44.541Z,16.70
2022-10-15T16:19:11.706Z,16.60
2022-10-15T16:21:38.358Z,16.50
2022-10-15T16:24:05.402Z,16.50
2022-10-15T16:26:32.993Z,16.40
2022-10-15T16:28:59.724Z,16.30
2022-10-15T16:31:33.250Z,16.40
2022-10-15T16:34:00.016Z,16.20
2022-10-15T16:36:26.746Z,16.70
2022-10-15T16:38:54.290Z,16.20
2022-10-15T16:41:21.270Z,16.00
2022-10-15T16:43:49.229Z,16.10
2022-10-15T16:46:18.503Z,16.00
2022-10-15T16:48:45.787Z,16.00
2022-10-15T16:51:15.340Z,16.00
2022-10-15T16:53:45.391Z,16.30
2022-10-15T16:56:20.676Z,15.90
2022-10-15T16:58:48.082Z,15.90
2022-10-15T17:01:20.222Z,15.90
2022-10-15T17:03:48.206Z,15.90
2022-10-15T17:06:19.642Z,15.80
2022-10-15T17:08:52.971Z,15.80
2022-10-15T17:11:21.111Z,15.80
2022-10-15T17:13:48.780Z,15.70
2022-10-15T17:16:18.540Z,15.80
2022-10-15T17:18:46.474Z,15.70
2022-10-15T17:21:20.012Z,15.80
2022-10-15T17:23:50.128Z,15.70
2022-10-15T17:26:19.571Z,15.80
2022-10-15T17:28:48.325Z,15.80
2022-10-15T17:31:18.580Z,15.80
2022-10-15T17:33:45.980Z,15.80
2022-10-15T17:36:18.712Z,15.80
2022-10-15T17:38:46.252Z,15.80
2022-10-15T17:41:19.062Z,15.80
2022-10-15T17:43:46.542Z,15.80
2022-10-15T17:46:17.185Z,15.90
2022-10-15T17:48:44.580Z,15.90
2022-10-15T17:51:15.389Z,15.80
2022-10-15T17:53:43.133Z,16.10
2022-10-15T17:56:14.000Z,15.80
2022-10-15T17:58:41.282Z,15.80
2022-10-15T18:01:27.851Z,15.80
2022-10-15T18:04:03.969Z,15.80
2022-10-15T18:06:30.806Z,15.90
2022-10-15T18:08:57.525Z,15.80
2022-10-15T18:11:27.802Z,15.80
2022-10-15T18:13:54.486Z,15.80
2022-10-15T18:16:22.226Z,15.80
2022-10-15T18:18:49.419Z,15.80
2022-10-15T18:21:18.141Z,15.90
2022-10-15T18:23:45.006Z,15.70
2022-10-15T18:26:18.712Z,15.70
2022-10-15T18:28:49.079Z,15.70
2022-10-15T18:31:16.539Z,15.70
2022-10-15T18:33:55.682Z,15.70
2022-10-15T18:36:25.466Z,15.70
2022-10-15T18:38:52.544Z,15.70
2022-10-15T18:41:20.811Z,15.70
2022-10-15T18:44:05.179Z,15.60
2022-10-15T18:46:33.907Z,15.70
2022-10-15T18:49:01.684Z,15.60
2022-10-15T18:51:29.053Z,15.60
2022-10-15T18:53:55.949Z,15.60
2022-10-15T18:56:23.121Z,15.60
2022-10-15T18:58:50.060Z,15.70
2022-10-15T19:01:34.803Z,15.60
2022-10-15T19:04:05.046Z,15.70
2022-10-15T19:06:34.921Z,15.60
2022-10-15T19:09:03.358Z,15.80
2022-10-15T19:11:30.964Z,15.60
2022-10-15T19:13:58.677Z,15.60
2022-10-15T19:16:25.557Z,15.50
2022-10-15T19:18:52.242Z,15.50
2022-10-15T19:21:19.099Z,15.60
2022-10-15T19:23:45.813Z,15.40
2022-10-15T19:26:13.714Z,15.40
2022-10-15T19:28:40.711Z,15.40
2022-10-15T19:31:10.359Z,15.30
2022-10-15T19:33:37.968Z,15.30
2022-10-15T19:36:05.128Z,15.30
2022-10-15T19:38:31.999Z,15.30
2022-10-15T19:41:02.941Z,15.30
2022-10-15T19:43:29.745Z,15.40
2022-10-15T19:45:56.431Z,15.40
2022-10-15T19:48:24.883Z,15.40
2022-10-15T19:50:51.657Z,15.40
2022-10-15T19:53:18.431Z,15.50
2022-10-15T19:55:55.689Z,15.40
2022-10-15T19:58:22.796Z,15.40
2022-10-15T20:00:50.746Z,15.40
2022-10-15T20:03:17.877Z,15.40
2022-10-15T20:05:46.840Z,15.40
2022-10-15T20:08:14.530Z,15.40
2022-10-15T20:10:47.156Z,15.40
2022-10-15T20:13:15.355Z,15.40
2022-10-15T20:15:46.532Z,15.40
2022-10-15T20:18:14.226Z,15.40
2022-10-15T20:20:43.012Z,15.00
2022-10-15T20:23:10.107Z,15.40
2022-10-15T20:25:37.850Z,15.40
2022-10-15T20:28:04.613Z,15.40
2022-10-15T20:30:31.499Z,15.30
2022-10-15T20:32:58.382Z,15.30
2022-10-15T20:35:25.075Z,15.30
2022-10-15T20:37:51.732Z,15.30
2022-10-15T20:40:18.452Z,15.30
2022-10-15T20:42:45.193Z,15.20
2022-10-15T20:45:14.632Z,15.30
2022-10-15T20:47:51.024Z,15.30
2022-10-15T20:50:22.565Z,15.20
2022-10-15T20:52:49.388Z,15.20
2022-10-15T20:55:16.247Z,15.30
2022-10-15T20:57:43.376Z,15.10
2022-10-15T21:00:11.033Z,15.00
2022-10-15T21:02:37.768Z,15.00
2022-10-15T21:05:04.762Z,15.00
2022-10-15T21:07:31.492Z,15.00
2022-10-15T21:09:58.748Z,14.90
2022-10-15T21:12:26.299Z,14.90
2022-10-15T21:14:53.344Z,14.90
2022-10-15T21:17:20.365Z,14.90
2022-10-15T21:19:50.390Z,14.90
2022-10-15T21:22:19.439Z,14.90
2022-10-15T21:24:46.337Z,14.80
2022-10-15T21:27:13.128Z,14.80
2022-10-15T21:29:39.940Z,14.80
2022-10-15T21:32:06.606Z,15.00
2022-10-15T21:34:33.348Z,14.70
2022-10-15T21:37:00.098Z,14.70
2022-10-15T21:39:26.946Z,14.90
2022-10-15T21:41:53.679Z,14.70
2022-10-15T21:44:20.389Z,15.30
2022-10-15T21:46:47.079Z,14.80
2022-10-15T21:49:14.023Z,14.80
2022-10-15T21:51:41.008Z,14.80
2022-10-15T21:54:09.071Z,14.80
2022-10-15T21:56:36.296Z,14.80
2022-10-15T21:59:03.119Z,14.80
2022-10-15T22:01:34.636Z,14.80
2022-10-15T22:04:06.589Z,14.80
2022-10-15T22:06:35.103Z,14.70
2022-10-15T22:09:02.830Z,14.70
2022-10-15T22:11:34.958Z,14.90
2022-10-15T22:14:04.730Z,14.70
2022-10-15T22:16:34.639Z,14.90
2022-10-15T22:19:01.519Z,14.60
2022-10-15T22:21:31.363Z,14.60
2022-10-15T22:24:01.439Z,14.50
2022-10-15T22:26:31.380Z,14.50
2022-10-15T22:28:59.851Z,14.40
2022-10-15T22:31:27.578Z,14.60
2022-10-15T22:33:54.891Z,14.90
2022-10-15T22:36:31.523Z,15.00
2022-10-15T22:39:01.842Z,14.70
2022-10-15T22:41:30.525Z,14.70
2022-10-15T22:43:57.181Z,14.70
2022-10-15T22:46:24.299Z,14.70
2022-10-15T22:48:51.017Z,14.70
2022-10-15T22:51:17.678Z,14.70
2022-10-15T22:53:44.364Z,14.80
2022-10-15T22:56:17.407Z,14.80
2022-10-15T22:58:44.977Z,14.80
2022-10-15T23:01:26.867Z,14.50
2022-10-15T23:03:56.751Z,14.80
2022-10-15T23:06:24.600Z,14.70
2022-10-15T23:08:51.695Z,14.40
2022-10-15T23:11:21.010Z,14.70
2022-10-15T23:13:51.820Z,14.80
2022-10-15T23:16:20.819Z,14.80
2022-10-15T23:18:51.863Z,14.90
2022-10-15T23:21:23.352Z,14.80
2022-10-15T23:23:51.798Z,15.20
2022-10-15T23:26:18.534Z,14.90
2022-10-15T23:28:51.588Z,14.90
2022-10-15T23:31:21.827Z,14.90
2022-10-15T23:33:48.588Z,14.90
2022-10-15T23:36:15.342Z,14.90
2022-10-15T23:38:42.072Z,14.70
2022-10-15T23:41:10.225Z,14.80
2022-10-15T23:43:37.504Z,14.50
2022-10-15T23:46:04.378Z,14.90
2022-10-15T23:48:31.083Z,14.90
2022-10-15T23:51:00.961Z,15.20
2022-10-15T23:53:32.882Z,14.60
2022-10-15T23:56:02.760Z,14.80
2022-10-15T23:58:32.018Z,14.90
